REU109 FIMP-FMEE
Flight info
| Callsign | REU109 |
|---|---|
| Flight time | 0h 30m |
| Altitude | 20000 |
| Route | SOBAT1 SOBAT SOBAT2R |
| Aircraft | B77W/H-SDE1E2E3FGHIJ2J3J4J5M1RWXY/LB1D1 |
Departure
| Time | 2026-04-25 14:52 |
|---|---|
| Airport | Sir Seewoosagur Ramgoolam International Airport (FIMP) |
Arrival
| Time | 2026-04-25 15:23 |
|---|---|
| Airport | Roland Garros Airport (FMEE) |
| Time | Latitude | Longitude | Altitude | Speed | Heading |
|---|---|---|---|---|---|
| 2026-04-25 14:11 | -20.43388 | 57.68009 | 191 ft | 0 kts | 262° |
| 2026-04-25 14:39 | -20.43386 | 57.68024 | 209 ft | 4 kts | 258° |
| 2026-04-25 14:39 | -20.43379 | 57.68052 | 207 ft | 4 kts | 254° |
| 2026-04-25 14:40 | -20.43373 | 57.68079 | 203 ft | 4 kts | 273° |
| 2026-04-25 14:40 | -20.43380 | 57.68102 | 200 ft | 4 kts | 310° |
| 2026-04-25 14:40 | -20.43400 | 57.68113 | 200 ft | 4 kts | 3° |
| 2026-04-25 14:40 | -20.43419 | 57.68112 | 207 ft | 1 kts | 355° |
| 2026-04-25 14:41 | -20.43423 | 57.68113 | 207 ft | 0 kts | 355° |
| 2026-04-25 14:44 | -20.43419 | 57.68112 | 207 ft | 1 kts | 355° |
| 2026-04-25 14:44 | -20.43404 | 57.68111 | 200 ft | 3 kts | 355° |
| 2026-04-25 14:45 | -20.43377 | 57.68108 | 202 ft | 5 kts | 352° |
| 2026-04-25 14:45 | -20.43342 | 57.68101 | 199 ft | 6 kts | 349° |
| 2026-04-25 14:45 | -20.43299 | 57.68088 | 203 ft | 7 kts | 341° |
| 2026-04-25 14:45 | -20.43251 | 57.68067 | 203 ft | 8 kts | 334° |
| 2026-04-25 14:46 | -20.43200 | 57.68034 | 206 ft | 9 kts | 324° |
| 2026-04-25 14:46 | -20.43150 | 57.67988 | 198 ft | 10 kts | 315° |
| 2026-04-25 14:46 | -20.43104 | 57.67927 | 206 ft | 11 kts | 305° |
| 2026-04-25 14:46 | -20.43066 | 57.67857 | 198 ft | 8 kts | 298° |
| 2026-04-25 14:47 | -20.43039 | 57.67804 | 197 ft | 9 kts | 297° |
| 2026-04-25 14:47 | -20.43020 | 57.67764 | 203 ft | 9 kts | 297° |
| 2026-04-25 14:47 | -20.42985 | 57.67691 | 204 ft | 8 kts | 300° |
| 2026-04-25 14:47 | -20.42943 | 57.67649 | 204 ft | 7 kts | 326° |
| 2026-04-25 14:48 | -20.42902 | 57.67619 | 201 ft | 8 kts | 326° |
| 2026-04-25 14:48 | -20.42859 | 57.67593 | 202 ft | 7 kts | 328° |
| 2026-04-25 14:48 | -20.42815 | 57.67559 | 203 ft | 8 kts | 323° |
| 2026-04-25 14:48 | -20.42781 | 57.67531 | 202 ft | 0 kts | 324° |
| 2026-04-25 14:49 | -20.42778 | 57.67529 | 205 ft | 2 kts | 325° |
| 2026-04-25 14:49 | -20.42767 | 57.67520 | 204 ft | 2 kts | 322° |
| 2026-04-25 14:49 | -20.42754 | 57.67509 | 199 ft | 2 kts | 322° |
| 2026-04-25 14:49 | -20.42739 | 57.67500 | 203 ft | 2 kts | 332° |
| 2026-04-25 14:50 | -20.42722 | 57.67492 | 202 ft | 4 kts | 340° |
| 2026-04-25 14:50 | -20.42677 | 57.67473 | 204 ft | 6 kts | 339° |
| 2026-04-25 14:50 | -20.42639 | 57.67459 | 205 ft | 6 kts | 340° |
| 2026-04-25 14:50 | -20.42607 | 57.67466 | 206 ft | 4 kts | 60° |
| 2026-04-25 14:51 | -20.42613 | 57.67494 | 206 ft | 5 kts | 100° |
| 2026-04-25 14:51 | -20.42623 | 57.67520 | 211 ft | 0 kts | 117° |
| 2026-04-25 14:51 | -20.42627 | 57.67527 | 211 ft | 8 kts | 117° |
| 2026-04-25 14:51 | -20.42742 | 57.67768 | 207 ft | 77 kts | 117° |
| 2026-04-25 14:52 | -20.43125 | 57.68567 | 183 ft | 157 kts | 117° |
| 2026-04-25 14:52 | -20.43707 | 57.69785 | 373 ft | 199 kts | 115° |
| 2026-04-25 14:52 | -20.44298 | 57.71143 | 1143 ft | 201 kts | 112° |
| 2026-04-25 14:52 | -20.44611 | 57.72070 | 1826 ft | 199 kts | 108° |
| 2026-04-25 14:53 | -20.45341 | 57.73853 | 3024 ft | 199 kts | 125° |
| 2026-04-25 14:53 | -20.46156 | 57.75027 | 3890 ft | 198 kts | 123° |
| 2026-04-25 14:53 | -20.47079 | 57.76138 | 4670 ft | 208 kts | 138° |
| 2026-04-25 14:53 | -20.48499 | 57.76837 | 4997 ft | 244 kts | 172° |
| 2026-04-25 14:54 | -20.50204 | 57.76401 | 5660 ft | 266 kts | 204° |
| 2026-04-25 14:54 | -20.51698 | 57.75123 | 6288 ft | 287 kts | 231° |
| 2026-04-25 14:54 | -20.52461 | 57.73159 | 7126 ft | 297 kts | 257° |
| 2026-04-25 14:54 | -20.52737 | 57.70960 | 8071 ft | 302 kts | 263° |
| 2026-04-25 14:55 | -20.52931 | 57.68707 | 8956 ft | 308 kts | 263° |
| 2026-04-25 14:55 | -20.53153 | 57.66440 | 10019 ft | 308 kts | 262° |
| 2026-04-25 14:55 | -20.53421 | 57.64122 | 10731 ft | 322 kts | 262° |
| 2026-04-25 14:55 | -20.53746 | 57.61644 | 10999 ft | 354 kts | 261° |
| 2026-04-25 14:56 | -20.54131 | 57.58945 | 11389 ft | 378 kts | 260° |
| 2026-04-25 14:56 | -20.54549 | 57.56134 | 12285 ft | 386 kts | 260° |
| 2026-04-25 14:56 | -20.54978 | 57.53313 | 13568 ft | 386 kts | 260° |
| 2026-04-25 14:56 | -20.55411 | 57.50478 | 14598 ft | 388 kts | 260° |
| 2026-04-25 14:57 | -20.55848 | 57.47610 | 15543 ft | 394 kts | 260° |
| 2026-04-25 14:57 | -20.56278 | 57.44694 | 16472 ft | 402 kts | 261° |
| 2026-04-25 14:57 | -20.56682 | 57.41740 | 17556 ft | 404 kts | 261° |
| 2026-04-25 14:57 | -20.57080 | 57.38745 | 18449 ft | 412 kts | 261° |
| 2026-04-25 14:58 | -20.57481 | 57.35704 | 19315 ft | 415 kts | 260° |
| 2026-04-25 14:58 | -20.57886 | 57.32638 | 20161 ft | 420 kts | 260° |
| 2026-04-25 14:58 | -20.58295 | 57.29563 | 21206 ft | 416 kts | 259° |
| 2026-04-25 14:58 | -20.58701 | 57.26509 | 21852 ft | 414 kts | 259° |
| 2026-04-25 14:59 | -20.59108 | 57.23464 | 21963 ft | 416 kts | 259° |
| 2026-04-25 14:59 | -20.59515 | 57.20416 | 21964 ft | 413 kts | 259° |
| 2026-04-25 14:59 | -20.59917 | 57.17395 | 21960 ft | 410 kts | 259° |
| 2026-04-25 14:59 | -20.60318 | 57.14389 | 21959 ft | 409 kts | 259° |
| 2026-04-25 15:00 | -20.60718 | 57.11384 | 21966 ft | 409 kts | 259° |
| 2026-04-25 15:00 | -20.60984 | 57.09390 | 21966 ft | 409 kts | 259° |
| 2026-04-25 15:00 | -20.61519 | 57.05366 | 21971 ft | 410 kts | 259° |
| 2026-04-25 15:00 | -20.61920 | 57.02350 | 21969 ft | 410 kts | 259° |
| 2026-04-25 15:01 | -20.62320 | 56.99332 | 21970 ft | 411 kts | 259° |
| 2026-04-25 15:01 | -20.62719 | 56.96315 | 21967 ft | 411 kts | 259° |
| 2026-04-25 15:01 | -20.63118 | 56.93293 | 21964 ft | 411 kts | 259° |
| 2026-04-25 15:01 | -20.63516 | 56.90272 | 21964 ft | 411 kts | 259° |
| 2026-04-25 15:02 | -20.63914 | 56.87250 | 21965 ft | 411 kts | 259° |
| 2026-04-25 15:02 | -20.64312 | 56.84226 | 21963 ft | 411 kts | 259° |
| 2026-04-25 15:02 | -20.64708 | 56.81210 | 21958 ft | 410 kts | 259° |
| 2026-04-25 15:02 | -20.65104 | 56.78195 | 21963 ft | 410 kts | 259° |
| 2026-04-25 15:03 | -20.65498 | 56.75180 | 21967 ft | 410 kts | 259° |
| 2026-04-25 15:03 | -20.65892 | 56.72168 | 21967 ft | 409 kts | 259° |
| 2026-04-25 15:03 | -20.66287 | 56.69153 | 21858 ft | 411 kts | 259° |
| 2026-04-25 15:03 | -20.66684 | 56.66112 | 21417 ft | 414 kts | 260° |
| 2026-04-25 15:04 | -20.67079 | 56.63076 | 20980 ft | 411 kts | 259° |
| 2026-04-25 15:04 | -20.67470 | 56.60066 | 20550 ft | 407 kts | 260° |
| 2026-04-25 15:04 | -20.67852 | 56.57124 | 20128 ft | 403 kts | 260° |
| 2026-04-25 15:04 | -20.68238 | 56.54139 | 19701 ft | 399 kts | 261° |
| 2026-04-25 15:05 | -20.68612 | 56.51252 | 19294 ft | 396 kts | 259° |
| 2026-04-25 15:05 | -20.68989 | 56.48347 | 18883 ft | 394 kts | 259° |
| 2026-04-25 15:05 | -20.69364 | 56.45451 | 18488 ft | 392 kts | 261° |
| 2026-04-25 15:06 | -20.70104 | 56.39714 | 17607 ft | 389 kts | 261° |
| 2026-04-25 15:06 | -20.70472 | 56.36850 | 17161 ft | 389 kts | 260° |
| 2026-04-25 15:06 | -20.70840 | 56.33987 | 16716 ft | 388 kts | 261° |
| 2026-04-25 15:06 | -20.71207 | 56.31133 | 16278 ft | 388 kts | 261° |
| 2026-04-25 15:07 | -20.71571 | 56.28287 | 15843 ft | 386 kts | 260° |
| 2026-04-25 15:07 | -20.71967 | 56.25455 | 15420 ft | 383 kts | 258° |
| 2026-04-25 15:07 | -20.72518 | 56.22685 | 14999 ft | 379 kts | 255° |
| 2026-04-25 15:07 | -20.73141 | 56.19961 | 14578 ft | 376 kts | 253° |
| 2026-04-25 15:08 | -20.73778 | 56.17269 | 14171 ft | 373 kts | 253° |
| 2026-04-25 15:08 | -20.74407 | 56.14588 | 13763 ft | 371 kts | 253° |
| 2026-04-25 15:08 | -20.75025 | 56.11919 | 13307 ft | 369 kts | 255° |
| 2026-04-25 15:08 | -20.75628 | 56.09265 | 12850 ft | 367 kts | 254° |
| 2026-04-25 15:09 | -20.76221 | 56.06626 | 12409 ft | 365 kts | 254° |
| 2026-04-25 15:09 | -20.76811 | 56.03987 | 11967 ft | 363 kts | 255° |
| 2026-04-25 15:09 | -20.77973 | 55.98759 | 11112 ft | 360 kts | 255° |
| 2026-04-25 15:10 | -20.78547 | 55.96164 | 10695 ft | 358 kts | 255° |
| 2026-04-25 15:10 | -20.79119 | 55.93580 | 10273 ft | 357 kts | 255° |
| 2026-04-25 15:10 | -20.80253 | 55.88452 | 9407 ft | 353 kts | 255° |
| 2026-04-25 15:11 | -20.80814 | 55.85906 | 8947 ft | 351 kts | 255° |
| 2026-04-25 15:11 | -20.81371 | 55.83374 | 8513 ft | 349 kts | 256° |
| 2026-04-25 15:11 | -20.81667 | 55.80832 | 8053 ft | 346 kts | 272° |
| 2026-04-25 15:12 | -20.80406 | 55.75922 | 7211 ft | 343 kts | 290° |
| 2026-04-25 15:12 | -20.79557 | 55.73540 | 6794 ft | 342 kts | 290° |
| 2026-04-25 15:12 | -20.78710 | 55.71201 | 6368 ft | 341 kts | 290° |
| 2026-04-25 15:12 | -20.78421 | 55.70406 | 6221 ft | 341 kts | 290° |
| 2026-04-25 15:13 | -20.76994 | 55.66524 | 5470 ft | 330 kts | 291° |
| 2026-04-25 15:13 | -20.75355 | 55.62124 | 4573 ft | 309 kts | 291° |
| 2026-04-25 15:13 | -20.74564 | 55.60015 | 4116 ft | 302 kts | 291° |
| 2026-04-25 15:14 | -20.73789 | 55.57960 | 3683 ft | 295 kts | 291° |
| 2026-04-25 15:14 | -20.73031 | 55.55953 | 3256 ft | 289 kts | 290° |
| 2026-04-25 15:14 | -20.72284 | 55.53980 | 2816 ft | 284 kts | 291° |
| 2026-04-25 15:14 | -20.71543 | 55.52028 | 2533 ft | 283 kts | 291° |
| 2026-04-25 15:15 | -20.70807 | 55.50074 | 2257 ft | 281 kts | 290° |
| 2026-04-25 15:15 | -20.70437 | 55.48067 | 1925 ft | 274 kts | 264° |
| 2026-04-25 15:15 | -20.70945 | 55.46164 | 1624 ft | 263 kts | 233° |
| 2026-04-25 15:15 | -20.71662 | 55.45173 | 1564 ft | 248 kts | 222° |
| 2026-04-25 15:16 | -20.73188 | 55.43460 | 1522 ft | 223 kts | 221° |
| 2026-04-25 15:16 | -20.73870 | 55.42701 | 1474 ft | 206 kts | 221° |
| 2026-04-25 15:16 | -20.75691 | 55.40600 | 1508 ft | 182 kts | 220° |
| 2026-04-25 15:17 | -20.77266 | 55.38722 | 1476 ft | 150 kts | 208° |
| 2026-04-25 15:17 | -20.78138 | 55.38170 | 1511 ft | 146 kts | 200° |
| 2026-04-25 15:17 | -20.79021 | 55.37623 | 1518 ft | 149 kts | 201° |
| 2026-04-25 15:18 | -20.79908 | 55.37060 | 1521 ft | 149 kts | 200° |
| 2026-04-25 15:18 | -20.81578 | 55.36998 | 1514 ft | 123 kts | 126° |
| 2026-04-25 15:18 | -20.82100 | 55.37741 | 1513 ft | 127 kts | 126° |
| 2026-04-25 15:19 | -20.82603 | 55.38504 | 1504 ft | 124 kts | 122° |
| 2026-04-25 15:19 | -20.82907 | 55.39014 | 1484 ft | 122 kts | 122° |
| 2026-04-25 15:19 | -20.83512 | 55.40021 | 1501 ft | 122 kts | 120° |
| 2026-04-25 15:19 | -20.83936 | 55.40838 | 1501 ft | 127 kts | 118° |
| 2026-04-25 15:20 | -20.84340 | 55.41671 | 1482 ft | 125 kts | 118° |
| 2026-04-25 15:20 | -20.84727 | 55.42491 | 1495 ft | 122 kts | 117° |
| 2026-04-25 15:20 | -20.85107 | 55.43300 | 1474 ft | 123 kts | 117° |
| 2026-04-25 15:20 | -20.85505 | 55.44133 | 1233 ft | 127 kts | 118° |
| 2026-04-25 15:21 | -20.85923 | 55.44961 | 1001 ft | 126 kts | 114° |
| 2026-04-25 15:21 | -20.86187 | 55.45848 | 851 ft | 121 kts | 109° |
| 2026-04-25 15:21 | -20.86515 | 55.46677 | 877 ft | 122 kts | 116° |
| 2026-04-25 15:21 | -20.86942 | 55.47482 | 736 ft | 128 kts | 124° |
| 2026-04-25 15:22 | -20.87418 | 55.48303 | 526 ft | 134 kts | 117° |
| 2026-04-25 15:22 | -20.87818 | 55.49211 | 359 ft | 135 kts | 115° |
| 2026-04-25 15:22 | -20.88264 | 55.50114 | 174 ft | 140 kts | 116° |
| 2026-04-25 15:22 | -20.88708 | 55.51036 | 58 ft | 130 kts | 116° |
| 2026-04-25 15:23 | -20.89046 | 55.51753 | 63 ft | 82 kts | 116° |
| 2026-04-25 15:23 | -20.89211 | 55.52103 | 69 ft | 13 kts | 116° |
| 2026-04-25 15:23 | -20.89215 | 55.52113 | 66 ft | 4 kts | 115° |
| 2026-04-25 15:23 | -20.89251 | 55.52187 | 63 ft | 8 kts | 128° |
| 2026-04-25 15:24 | -20.89300 | 55.52211 | 72 ft | 8 kts | 173° |
| 2026-04-25 15:24 | -20.89331 | 55.52204 | 85 ft | 2 kts | 200° |
| 2026-04-25 15:24 | -20.89344 | 55.52199 | 87 ft | 2 kts | 201° |
| 2026-04-25 15:24 | -20.89353 | 55.52196 | 87 ft | 2 kts | 200° |
| 2026-04-25 15:25 | -20.89370 | 55.52188 | 92 ft | 2 kts | 210° |
| 2026-04-25 15:25 | -20.89381 | 55.52179 | 93 ft | 2 kts | 217° |
| 2026-04-25 15:25 | -20.89389 | 55.52166 | 91 ft | 2 kts | 238° |
| 2026-04-25 15:25 | -20.89397 | 55.52154 | 94 ft | 2 kts | 232° |
| 2026-04-25 15:26 | -20.89407 | 55.52130 | 94 ft | 4 kts | 271° |
| 2026-04-25 15:26 | -20.89391 | 55.52102 | 95 ft | 5 kts | 292° |
| 2026-04-25 15:26 | -20.89375 | 55.52061 | 95 ft | 7 kts | 292° |
| 2026-04-25 15:26 | -20.89353 | 55.52007 | 95 ft | 9 kts | 298° |
| 2026-04-25 15:27 | -20.89321 | 55.51943 | 92 ft | 11 kts | 298° |
| 2026-04-25 15:27 | -20.89284 | 55.51866 | 90 ft | 13 kts | 296° |
| 2026-04-25 15:27 | -20.89195 | 55.51675 | 89 ft | 16 kts | 296° |
| 2026-04-25 15:28 | -20.89157 | 55.51592 | 91 ft | 7 kts | 297° |
| 2026-04-25 15:28 | -20.89131 | 55.51539 | 89 ft | 10 kts | 297° |
| 2026-04-25 15:28 | -20.89104 | 55.51484 | 84 ft | 5 kts | 297° |
| 2026-04-25 15:28 | -20.89085 | 55.51443 | 85 ft | 6 kts | 297° |
| 2026-04-25 15:29 | -20.89065 | 55.51401 | 85 ft | 7 kts | 296° |
| 2026-04-25 15:29 | -20.89057 | 55.51384 | 84 ft | 1 kts | 296° |
| 2026-04-25 15:29 | -20.89054 | 55.51377 | 85 ft | 0 kts | 296° |
| 2026-04-25 15:29 | -20.89053 | 55.51374 | 84 ft | 1 kts | 289° |
| 2026-04-25 15:30 | -20.89051 | 55.51364 | 84 ft | 2 kts | 279° |
| 2026-04-25 15:30 | -20.89056 | 55.51348 | 84 ft | 3 kts | 244° |
| 2026-04-25 15:30 | -20.89067 | 55.51330 | 83 ft | 0 kts | 224° |
| 2026-04-25 15:30 | -20.89070 | 55.51326 | 84 ft | 1 kts | 226° |
| 2026-04-25 15:31 | -20.89080 | 55.51318 | 84 ft | 3 kts | 219° |
| 2026-04-25 15:31 | -20.89098 | 55.51304 | 85 ft | 4 kts | 216° |
| 2026-04-25 15:31 | -20.89101 | 55.51301 | 84 ft | 0 kts | 216° |